Time;durP1;ratioP1;P1;durP2;ratioP2;P2;SDS_P1;SDS_P2;PMS_P1;PMS_P2;Temp;Humidity;BMP_temperature;BMP_pressure;BME280_temperature;BME280_humidity;BME280_pressure;Samples;Min_cycle;Max_cycle;Signal;HPM_P1;HPM_P2
2021/06/25 05:38:36;;;;;;;5.93;0.82;;;;;;;26.38;35.32;100393.16;5059107;27;20397;-38
2021/06/25 05:41:03;;;;;;;6.28;0.90;;;;;;;26.35;35.40;100404.19;5046370;28;20080;-41
2021/06/25 05:43:30;;;;;;;1.40;0.52;;;;;;;26.37;35.48;100402.19;5047473;28;20519;-41
2021/06/25 05:45:59;;;;;;;2.42;0.80;;;;;;;26.45;35.74;100404.00;5047893;28;20133;-42
2021/06/25 05:48:26;;;;;;;2.63;0.52;;;;;;;26.49;35.37;100398.13;5047017;28;20072;-43
2021/06/25 05:50:53;;;;;;;3.67;1.05;;;;;;;26.51;35.06;100404.13;5045270;28;20039;-43
2021/06/25 05:53:20;;;;;;;19.83;5.00;;;;;;;25.99;35.25;100403.84;5047164;28;20049;-43
2021/06/25 05:55:47;;;;;;;1.98;0.80;;;;;;;26.13;35.18;100400.44;5045758;28;20075;-35
2021/06/25 05:58:14;;;;;;;2.83;1.13;;;;;;;25.94;35.08;100401.72;5045065;28;20041;-43
2021/06/25 06:00:41;;;;;;;1.42;0.60;;;;;;;25.90;35.27;100400.38;5042611;28;20045;-42
2021/06/25 06:03:08;;;;;;;2.78;0.60;;;;;;;25.92;35.63;100402.88;5039345;28;20496;-43
2021/06/25 06:05:36;;;;;;;1.48;1.05;;;;;;;25.81;36.11;100406.75;5043249;28;20488;-43
2021/06/25 06:08:04;;;;;;;3.22;0.88;;;;;;;25.76;36.16;100404.59;5041032;28;20058;-43
2021/06/25 06:10:31;;;;;;;2.00;1.45;;;;;;;25.74;36.25;100408.41;5039061;28;20400;-43
2021/06/25 06:12:58;;;;;;;2.72;0.70;;;;;;;25.70;36.63;100410.59;5042392;28;20037;-43
2021/06/25 06:15:25;;;;;;;1.70;0.90;;;;;;;25.76;36.78;100414.44;5039808;28;20045;-42
2021/06/25 06:17:55;;;;;;;2.70;0.80;;;;;;;25.80;36.75;100405.09;5043816;28;20128;-42
2021/06/25 06:20:24;;;;;;;1.40;0.85;;;;;;;25.71;36.96;100406.06;5045119;28;20040;-42
2021/06/25 06:33:54;;;;;;;2.55;0.68;;;;;;;25.83;37.18;100404.72;5040548;28;20048;-42
2021/06/25 06:36:28;;;;;;;0.88;0.88;;;;;;;25.84;37.21;100395.75;5044548;28;20052;-43
2021/06/25 06:38:57;;;;;;;2.75;1.00;;;;;;;25.79;37.32;100404.25;5044598;28;20053;-43
2021/06/25 06:41:26;;;;;;;1.55;0.60;;;;;;;25.86;37.17;100405.22;5046162;28;20117;-43
2021/06/25 06:43:54;;;;;;;2.63;0.80;;;;;;;25.86;37.05;100399.06;5046843;28;20087;-42
2021/06/25 06:46:20;;;;;;;2.05;0.70;;;;;;;25.81;36.77;100398.75;5047752;28;20041;-43
2021/06/25 06:48:47;;;;;;;4.28;0.70;;;;;;;25.76;36.88;100388.56;5033750;28;20042;-42
2021/06/25 06:51:19;;;;;;;2.80;0.68;;;;;;;25.85;36.99;100392.06;5033483;28;20485;-42
2021/06/25 06:53:46;;;;;;;1.95;1.38;;;;;;;25.95;36.83;100400.69;5033772;28;20041;-42
2021/06/25 06:56:15;;;;;;;5.35;0.98;;;;;;;26.04;36.65;100394.31;5028050;28;20045;-43
2021/06/25 06:58:42;;;;;;;3.10;0.82;;;;;;;25.95;36.65;100389.19;5029052;28;20049;-42
2021/06/25 07:01:09;;;;;;;0.60;0.60;;;;;;;25.82;36.92;100393.22;5034354;28;20038;-42
2021/06/25 07:03:56;;;;;;;1.55;0.70;;;;;;;25.85;36.92;100394.72;5034617;28;20041;-42
2021/06/25 07:06:23;;;;;;;3.00;1.38;;;;;;;25.86;37.06;100393.72;5031363;28;20049;-35
2021/06/25 07:08:50;;;;;;;5.30;1.55;;;;;;;25.89;37.00;100397.88;5034781;28;20140;-42
2021/06/25 07:11:17;;;;;;;2.75;0.70;;;;;;;25.87;36.88;100390.03;5035304;28;20045;-42
2021/06/25 07:13:44;;;;;;;1.65;0.55;;;;;;;25.88;37.13;100391.69;5033670;28;20447;-42
2021/06/25 07:16:12;;;;;;;0.82;0.65;;;;;;;26.02;36.76;100384.81;5035357;28;20042;-37
2021/06/25 07:18:40;;;;;;;3.67;0.93;;;;;;;26.08;36.59;100392.94;5034548;28;20136;-41
2021/06/25 07:21:08;;;;;;;4.97;1.05;;;;;;;26.02;36.62;100398.16;5034882;28;20060;-42
2021/06/25 07:23:35;;;;;;;2.22;0.50;;;;;;;26.03;36.54;100394.47;5032835;28;20133;-41
2021/06/25 07:26:02;;;;;;;1.67;0.65;;;;;;;26.08;36.72;100390.28;5027495;28;20079;-42
2021/06/25 07:28:29;;;;;;;2.38;0.80;;;;;;;26.05;36.67;100387.97;5034119;28;20128;-42
2021/06/25 07:30:56;;;;;;;10.43;1.40;;;;;;;26.05;36.67;100382.63;5034974;28;20124;-43
2021/06/25 07:33:23;;;;;;;3.55;0.60;;;;;;;26.03;36.65;100381.97;5031598;28;20033;-41
2021/06/25 07:35:50;;;;;;;3.55;0.88;;;;;;;25.96;36.49;100378.31;5013707;28;20056;-43
2021/06/25 07:38:17;;;;;;;3.70;1.17;;;;;;;26.00;36.50;100379.66;5014620;28;20124;-43
2021/06/25 07:40:43;;;;;;;3.75;0.68;;;;;;;26.05;36.30;100377.28;5013338;28;20046;-42
2021/06/25 07:43:10;;;;;;;1.25;0.70;;;;;;;26.10;36.25;100377.59;5024727;28;20046;-42
2021/06/25 07:45:37;;;;;;;4.70;0.88;;;;;;;26.03;36.41;100373.94;5023361;28;20124;-43
2021/06/25 07:48:05;;;;;;;5.90;1.30;;;;;;;26.05;36.45;100374.63;5026834;28;20037;-40
2021/06/25 07:50:33;;;;;;;2.15;1.00;;;;;;;26.06;36.25;100373.59;5026853;28;20061;-41
2021/06/25 07:53:02;;;;;;;2.72;0.65;;;;;;;26.04;36.44;100367.59;5026359;28;20065;-39
2021/06/25 07:55:29;;;;;;;1.05;0.50;;;;;;;26.09;36.35;100373.25;5024233;28;20400;-44
2021/06/25 07:57:56;;;;;;;1.90;0.80;;;;;;;26.12;36.51;100372.06;5027353;28;20050;-43
2021/06/25 08:00:22;;;;;;;0.90;0.60;;;;;;;26.16;36.32;100369.91;5025470;28;20316;-42
2021/06/25 08:02:49;;;;;;;2.47;0.60;;;;;;;26.13;36.15;100360.38;5025142;28;20451;-43
2021/06/25 08:05:17;;;;;;;1.17;0.40;;;;;;;26.16;36.14;100362.72;5022569;28;20042;-42
2021/06/25 08:07:44;;;;;;;1.15;0.43;;;;;;;26.24;36.12;100359.16;5024493;28;20045;-42
2021/06/25 08:10:13;;;;;;;1.63;0.60;;;;;;;26.28;36.16;100366.66;5027994;28;20042;-43
2021/06/25 08:12:40;;;;;;;2.95;0.60;;;;;;;26.32;36.07;100364.47;5029889;28;20092;-43
2021/06/25 08:15:08;;;;;;;0.70;0.70;;;;;;;26.26;36.27;100366.00;5029729;28;20044;-43
2021/06/25 08:17:35;;;;;;;2.90;0.82;;;;;;;26.22;36.49;100356.66;5023700;28;20076;-39
2021/06/25 08:20:02;;;;;;;0.82;0.57;;;;;;;26.29;36.64;100362.13;5022037;28;20064;-43
2021/06/25 08:22:29;;;;;;;3.22;0.90;;;;;;;26.36;36.63;100366.59;5022507;28;20548;-42
2021/06/25 08:24:56;;;;;;;2.97;0.95;;;;;;;26.37;36.46;100364.78;5024169;28;20124;-43
2021/06/25 08:27:23;;;;;;;2.70;0.55;;;;;;;26.41;36.38;100367.91;5026826;28;20140;-38
2021/06/25 08:29:50;;;;;;;1.85;0.95;;;;;;;26.47;36.38;100365.38;5025149;28;20145;-40
2021/06/25 08:32:17;;;;;;;2.42;0.77;;;;;;;26.48;36.51;100367.06;5027054;28;20038;-40
2021/06/25 08:34:44;;;;;;;0.82;0.77;;;;;;;26.43;36.39;100363.25;5027322;28;20120;-40
2021/06/25 08:37:11;;;;;;;3.13;0.80;;;;;;;26.37;36.72;100364.78;5024541;28;20049;-45
2021/06/25 08:39:38;;;;;;;1.35;0.80;;;;;;;26.37;36.75;100360.25;5025377;28;20060;-42
2021/06/25 08:42:06;;;;;;;2.70;1.13;;;;;;;26.41;36.86;100363.38;5023913;28;20405;-40
2021/06/25 08:44:39;;;;;;;0.57;0.57;;;;;;;26.48;36.93;100361.72;5028424;28;20136;-40
2021/06/25 08:47:07;;;;;;;1.65;0.80;;;;;;;26.45;37.30;100351.38;5025477;28;20113;-40
2021/06/25 08:49:36;;;;;;;2.90;1.00;;;;;;;26.46;37.33;100358.38;5025368;28;20500;-41
2021/06/25 08:52:05;;;;;;;0.85;0.82;;;;;;;26.46;36.94;100353.03;5025629;28;20125;-43
2021/06/25 08:54:33;;;;;;;1.80;0.77;;;;;;;26.43;37.13;100341.88;5024029;28;20103;-42
2021/06/25 08:57:04;;;;;;;2.05;0.60;;;;;;;26.48;37.19;100348.38;5023870;28;20064;-43
2021/06/25 08:59:31;;;;;;;5.18;1.15;;;;;;;26.50;37.32;100349.00;5029524;28;20120;-43
2021/06/25 09:01:59;;;;;;;1.80;1.00;;;;;;;26.52;37.34;100344.28;5021990;28;20043;-43
2021/06/25 09:04:30;;;;;;;3.28;0.70;;;;;;;26.54;37.17;100350.31;5023671;28;20041;-43
2021/06/25 09:06:57;;;;;;;2.70;0.68;;;;;;;26.53;37.14;100351.34;5020246;28;20041;-41
2021/06/25 09:09:38;;;;;;;1.25;0.70;;;;;;;26.53;37.12;100348.66;5028136;28;20037;-43
2021/06/25 09:12:21;;;;;;;2.10;0.90;;;;;;;26.58;37.21;100348.97;5029517;28;20493;-42
2021/06/25 09:15:15;;;;;;;1.57;1.47;;;;;;;26.60;37.42;100338.09;5029263;28;20073;-41
2021/06/25 09:18:01;;;;;;;1.48;1.02;;;;;;;26.57;37.12;100339.25;5029479;28;20302;-42
2021/06/25 09:20:30;;;;;;;1.77;0.82;;;;;;;26.58;37.00;100342.75;5030680;28;20128;-42
2021/06/25 09:22:56;;;;;;;5.18;0.75;;;;;;;26.57;37.13;100330.41;5029292;28;20041;-43
2021/06/25 09:25:23;;;;;;;1.60;0.90;;;;;;;26.56;37.22;100332.25;5028235;28;20037;-43
2021/06/25 09:27:57;;;;;;;3.90;0.60;;;;;;;26.58;37.10;100324.91;5027928;28;20056;-42
2021/06/25 09:30:26;;;;;;;1.08;0.63;;;;;;;26.60;36.97;100335.41;5030713;28;20045;-42
2021/06/25 09:32:53;;;;;;;1.50;0.90;;;;;;;26.60;36.99;100333.56;5029619;28;20096;-38
2021/06/25 09:35:23;;;;;;;3.75;0.63;;;;;;;26.60;37.20;100332.72;5031554;28;20052;-40
2021/06/25 09:37:53;;;;;;;1.35;0.60;;;;;;;26.64;37.27;100324.19;5030803;28;20369;-36
2021/06/25 09:40:21;;;;;;;1.70;0.60;;;;;;;26.62;37.40;100331.53;5029690;28;20129;-43
2021/06/25 09:43:12;;;;;;;1.27;0.60;;;;;;;26.64;37.70;100328.69;5024080;28;20053;-42
2021/06/25 09:45:49;;;;;;;0.77;0.70;;;;;;;26.62;37.84;100333.38;5030639;28;20124;-43
2021/06/25 09:48:17;;;;;;;3.08;0.85;;;;;;;26.66;37.86;100331.19;5025579;28;20033;-42
2021/06/25 09:50:45;;;;;;;2.03;0.85;;;;;;;26.69;37.78;100330.84;5029766;28;20552;-42
2021/06/25 09:53:12;;;;;;;1.23;1.00;;;;;;;26.73;37.70;100332.13;5029563;28;20040;-43
2021/06/25 09:55:52;;;;;;;2.25;0.82;;;;;;;26.74;37.59;100323.94;5030233;28;20059;-42
2021/06/25 09:58:40;;;;;;;4.80;1.00;;;;;;;26.73;37.34;100322.25;5027986;28;20045;-43
2021/06/25 10:01:28;;;;;;;1.25;0.90;;;;;;;26.77;37.53;100325.41;5028107;28;20047;-43
2021/06/25 10:03:58;;;;;;;0.88;0.80;;;;;;;26.77;37.64;100320.88;5028761;28;20080;-42
2021/06/25 10:06:34;;;;;;;2.35;1.10;;;;;;;26.80;37.75;100320.53;5030504;28;20116;-42
2021/06/25 10:09:02;;;;;;;1.77;0.70;;;;;;;26.83;37.64;100319.34;5029291;28;20060;-42
2021/06/25 10:11:31;;;;;;;1.10;0.80;;;;;;;26.84;37.50;100318.31;5029417;28;20037;-41
2021/06/25 10:14:04;;;;;;;0.82;0.80;;;;;;;26.84;37.63;100323.66;5030367;28;20056;-43
2021/06/25 10:16:32;;;;;;;2.03;0.80;;;;;;;26.84;37.45;100312.97;5030773;28;20041;-38
2021/06/25 10:18:59;;;;;;;1.95;1.00;;;;;;;26.88;37.56;100308.94;5020578;28;20549;-42
2021/06/25 10:21:31;;;;;;;0.73;0.73;;;;;;;26.88;37.44;100308.94;5028567;28;20132;-40
2021/06/25 10:24:03;;;;;;;4.00;0.90;;;;;;;26.88;37.73;100314.28;5027220;28;20060;-42
2021/06/25 10:26:32;;;;;;;1.20;0.80;;;;;;;26.88;38.00;100304.41;5032424;28;20069;-39
2021/06/25 10:29:00;;;;;;;4.72;0.93;;;;;;;26.86;38.35;100305.63;5033912;28;20083;-42
2021/06/25 10:31:27;;;;;;;1.02;0.82;;;;;;;26.89;38.08;100311.41;5031493;28;20103;-40
2021/06/25 10:33:55;;;;;;;2.10;0.70;;;;;;;26.93;38.01;100316.41;5033894;28;20075;-40
2021/06/25 10:36:30;;;;;;;2.10;1.13;;;;;;;26.93;38.05;100319.09;5031502;28;20112;-41
2021/06/25 10:39:13;;;;;;;3.75;1.20;;;;;;;26.95;38.17;100309.84;5035041;28;20111;-37
2021/06/25 10:41:54;;;;;;;1.73;0.63;;;;;;;27.01;37.86;100303.81;5034495;28;20064;-41
2021/06/25 10:44:30;;;;;;;2.42;1.70;;;;;;;27.04;37.85;100297.25;5029579;28;20053;-41
2021/06/25 10:47:19;;;;;;;2.50;0.80;;;;;;;27.04;37.99;100305.28;5032229;28;20056;-42
2021/06/25 10:49:59;;;;;;;2.40;0.70;;;;;;;27.03;38.17;100296.41;5032231;28;20041;-42
2021/06/25 10:52:30;;;;;;;1.30;0.70;;;;;;;27.04;38.24;100292.72;5031536;28;20045;-42
2021/06/25 10:55:24;;;;;;;3.13;0.77;;;;;;;27.05;37.97;100289.03;5031186;28;20064;-40
2021/06/25 10:57:50;;;;;;;3.92;1.05;;;;;;;27.06;37.79;100285.38;5031295;28;20041;-40
2021/06/25 11:00:39;;;;;;;1.98;1.08;;;;;;;27.07;37.75;100284.38;5031789;28;20029;-35
2021/06/25 11:03:06;;;;;;;2.25;0.80;;;;;;;27.07;37.82;100276.34;5031220;28;20038;-42
2021/06/25 11:05:34;;;;;;;1.98;1.40;;;;;;;27.08;38.14;100278.00;5033477;28;20042;-42
2021/06/25 11:08:16;;;;;;;3.40;0.90;;;;;;;27.12;37.98;100278.47;5034598;28;20381;-40
2021/06/25 11:10:51;;;;;;;3.53;1.42;;;;;;;27.10;37.99;100281.31;5029312;28;20034;-38
2021/06/25 11:13:24;;;;;;;1.23;0.60;;;;;;;27.12;37.82;100278.47;5032669;28;20116;-41
2021/06/25 11:15:59;;;;;;;2.83;0.70;;;;;;;27.11;37.58;100282.16;5032614;28;20042;-41
2021/06/25 11:18:28;;;;;;;1.23;0.75;;;;;;;27.13;36.75;100278.28;5033488;28;20432;-41
2021/06/25 11:21:09;;;;;;;0.90;0.70;;;;;;;27.14;36.97;100274.59;5032500;28;20037;-39
2021/06/25 11:23:41;;;;;;;3.65;0.70;;;;;;;27.14;36.74;100271.91;5032215;28;20397;-35
2021/06/25 11:26:17;;;;;;;2.25;0.68;;;;;;;27.17;36.28;100261.88;5031029;28;20488;-41
2021/06/25 11:28:51;;;;;;;2.08;0.77;;;;;;;27.19;36.09;100265.19;5030701;28;20040;-40
2021/06/25 11:31:20;;;;;;;3.45;0.90;;;;;;;27.19;36.05;100249.97;5032559;28;20133;-40
2021/06/25 11:33:47;;;;;;;1.33;0.73;;;;;;;27.20;35.85;100253.47;5034312;28;20041;-41
2021/06/25 11:36:14;;;;;;;0.85;0.77;;;;;;;27.21;36.03;100255.13;5031477;28;20045;-43
2021/06/25 11:38:56;;;;;;;1.33;0.63;;;;;;;27.23;36.22;100264.66;5034262;28;20080;-42
2021/06/25 11:41:40;;;;;;;0.60;0.40;;;;;;;27.22;36.36;100263.00;5014691;28;20564;-42
2021/06/25 11:44:23;;;;;;;0.57;0.50;;;;;;;27.24;35.81;100260.13;5028883;28;20056;-42
2021/06/25 11:46:58;;;;;;;1.43;0.57;;;;;;;27.25;35.01;100254.56;5026822;28;20044;-40
2021/06/25 11:49:39;;;;;;;0.77;0.40;;;;;;;27.25;34.80;100253.75;5026781;28;20288;-42
2021/06/25 11:52:09;;;;;;;0.30;0.30;;;;;;;27.26;35.20;100258.06;5030699;28;20037;-37
2021/06/25 11:54:38;;;;;;;1.38;0.50;;;;;;;27.25;35.08;100251.91;5027879;28;20049;-36
2021/06/25 11:57:14;;;;;;;0.40;0.40;;;;;;;27.27;35.00;100251.72;5031143;28;20481;-41
2021/06/25 11:59:45;;;;;;;0.30;0.30;;;;;;;27.27;35.02;100249.03;5032186;28;20076;-40
2021/06/25 12:02:12;;;;;;;0.30;0.30;;;;;;;27.28;34.96;100248.03;5027479;28;20068;-42
2021/06/25 12:04:43;;;;;;;0.63;0.50;;;;;;;27.30;34.67;100256.69;5032318;28;20076;-43
2021/06/25 12:07:12;;;;;;;1.20;0.30;;;;;;;27.31;34.83;100243.13;5031688;28;20048;-42
2021/06/25 12:09:43;;;;;;;0.65;0.30;;;;;;;27.33;34.87;100248.31;5012116;28;20053;-41
2021/06/25 12:12:19;;;;;;;0.40;0.40;;;;;;;27.34;34.63;100244.63;5016316;28;20037;-42
2021/06/25 12:15:16;;;;;;;0.88;0.60;;;;;;;27.33;34.47;100238.44;5031446;28;20047;-40
2021/06/25 12:17:47;;;;;;;0.85;0.52;;;;;;;27.33;34.33;100226.91;5013007;28;20124;-42
2021/06/25 12:20:22;;;;;;;1.30;0.40;;;;;;;27.39;34.23;100228.84;5018002;28;20099;-42
2021/06/25 12:22:56;;;;;;;0.60;0.40;;;;;;;27.38;34.15;100227.19;5033924;28;20131;-42
2021/06/25 12:25:30;;;;;;;;;;;;;;;27.39;34.22;100231.50;5034240;28;20042;-42
2021/06/25 12:27:59;;;;;;;3.30;1.23;;;;;;;27.38;34.38;100227.19;5033590;28;19928;-42
2021/06/25 12:30:26;;;;;;;0.38;0.38;;;;;;;27.40;34.28;100217.09;5033689;28;20400;-42
2021/06/25 12:33:02;;;;;;;0.55;0.30;;;;;;;27.41;34.40;100219.59;5033657;28;20068;-42
2021/06/25 12:35:34;;;;;;;0.50;0.30;;;;;;;27.40;34.15;100212.56;5033701;28;20042;-42
2021/06/25 12:38:07;;;;;;;1.85;0.40;;;;;;;27.41;33.92;100213.41;5033567;28;20126;-42
2021/06/25 12:40:41;;;;;;;0.95;0.40;;;;;;;27.43;34.29;100206.00;5033283;28;20048;-42
2021/06/25 12:43:10;;;;;;;0.50;0.40;;;;;;;27.44;33.91;100209.53;5033913;28;20078;-42
2021/06/25 12:45:45;;;;;;;0.32;0.32;;;;;;;27.43;34.05;100206.00;5031682;28;20104;-42
2021/06/25 12:48:19;;;;;;;6.90;0.60;;;;;;;27.45;34.10;100201.31;5033335;28;20111;-41
2021/06/25 12:50:47;;;;;;;1.67;0.40;;;;;;;27.46;34.12;100199.47;5015497;28;20042;-42
2021/06/25 12:53:14;;;;;;;0.77;0.40;;;;;;;27.50;34.10;100198.91;5013392;28;20042;-42
2021/06/25 12:55:44;;;;;;;1.10;0.30;;;;;;;27.50;34.13;100200.75;5014588;28;20046;-42
2021/06/25 12:58:21;;;;;;;0.57;0.57;;;;;;;27.50;33.89;100201.59;5024742;28;20033;-42
2021/06/25 13:00:58;;;;;;;0.60;0.40;;;;;;;27.51;33.98;100197.06;5016604;28;20060;-42
2021/06/25 13:03:28;;;;;;;0.30;0.30;;;;;;;27.51;33.93;100197.06;5032938;28;20041;-42
2021/06/25 13:05:56;;;;;;;0.50;0.30;;;;;;;27.49;34.12;100194.56;5031871;28;20100;-43
2021/06/25 13:08:26;;;;;;;0.57;0.50;;;;;;;27.50;34.13;100185.53;5032747;28;20041;-42
2021/06/25 13:11:16;;;;;;;1.45;0.43;;;;;;;27.51;33.83;100192.53;5033413;28;20051;-42
2021/06/25 13:13:43;;;;;;;0.55;0.35;;;;;;;27.54;33.79;100180.59;5033032;28;20041;-42
2021/06/25 13:16:15;;;;;;;1.73;0.60;;;;;;;27.55;33.39;100183.09;5026421;28;20124;-42
2021/06/25 13:18:45;;;;;;;0.40;0.40;;;;;;;27.54;33.61;100194.84;5032641;28;20386;-42
2021/06/25 13:21:30;;;;;;;0.40;0.40;;;;;;;27.53;33.57;100190.47;5028725;28;20042;-42
2021/06/25 13:24:35;;;;;;;0.40;0.30;;;;;;;27.53;33.54;100192.31;5012989;28;20134;-42
2021/06/25 13:27:07;;;;;;;2.35;0.50;;;;;;;27.55;33.47;100188.47;5019777;28;20048;-42
2021/06/25 13:29:46;;;;;;;0.32;0.30;;;;;;;27.62;33.07;100183.19;5021067;28;20051;-42
2021/06/25 13:32:15;;;;;;;1.38;0.40;;;;;;;27.68;33.09;100187.78;5032892;28;20092;-42
2021/06/25 13:35:02;;;;;;;0.20;0.20;;;;;;;27.71;32.93;100192.78;5031555;28;20563;-42
2021/06/25 13:37:51;;;;;;;1.65;0.50;;;;;;;27.67;33.11;100186.94;5032589;28;20045;-42
2021/06/25 13:40:39;;;;;;;0.65;0.40;;;;;;;27.66;33.31;100192.50;5032579;28;20050;-42
2021/06/25 13:43:13;;;;;;;0.20;0.20;;;;;;;27.64;33.39;100183.81;5033011;28;20117;-42
2021/06/25 13:45:41;;;;;;;0.32;0.30;;;;;;;27.76;32.83;100184.19;5029888;28;20042;-42
2021/06/25 13:48:22;;;;;;;0.65;0.65;;;;;;;27.76;33.17;100181.50;5032562;28;20128;-42
2021/06/25 13:51:00;;;;;;;0.82;0.30;;;;;;;27.74;33.42;100180.84;5032521;28;20129;-42
2021/06/25 13:53:38;;;;;;;0.30;0.30;;;;;;;27.71;33.49;100187.44;5032579;28;20045;-42
2021/06/25 13:56:09;;;;;;;0.40;0.40;;;;;;;27.71;33.19;100170.53;5032324;28;20551;-42
2021/06/25 13:59:05;;;;;;;1.92;0.40;;;;;;;27.70;33.48;100169.72;5033409;28;20092;-42
2021/06/25 14:01:38;;;;;;;0.93;0.40;;;;;;;27.68;33.51;100167.16;5036535;28;20084;-41
2021/06/25 14:04:10;;;;;;;0.47;0.47;;;;;;;27.71;33.81;100165.19;5036438;28;20052;-42
2021/06/25 14:06:49;;;;;;;3.00;1.25;;;;;;;27.71;33.47;100166.00;5036763;28;20365;-42
2021/06/25 14:09:23;;;;;;;0.35;0.30;;;;;;;27.81;33.45;100165.72;5036450;28;20045;-42
2021/06/25 14:11:51;;;;;;;0.52;0.32;;;;;;;27.99;32.96;100151.84;5036523;28;20115;-43
2021/06/25 14:14:19;;;;;;;0.77;0.40;;;;;;;28.00;32.74;100156.19;5020120;28;20038;-42
2021/06/25 14:17:01;;;;;;;2.20;0.35;;;;;;;27.89;33.45;100157.53;5016532;28;20066;-42
2021/06/25 14:19:27;;;;;;;0.68;0.35;;;;;;;27.85;33.64;100158.91;5035498;28;20056;-42
2021/06/25 14:21:54;;;;;;;2.17;0.40;;;;;;;27.88;32.39;100161.22;5036533;28;20041;-42
2021/06/25 14:24:25;;;;;;;0.60;0.45;;;;;;;27.91;32.98;100155.47;5031934;28;20041;-42
2021/06/25 14:26:52;;;;;;;0.65;0.40;;;;;;;28.12;31.83;100149.28;5016398;28;20042;-42
2021/06/25 14:29:20;;;;;;;1.35;0.40;;;;;;;28.01;32.63;100152.47;5031833;28;20376;-42
2021/06/25 14:31:47;;;;;;;1.95;0.45;;;;;;;27.97;32.83;100149.38;5036078;28;20439;-37
2021/06/25 14:34:15;;;;;;;0.73;0.30;;;;;;;27.96;32.77;100155.72;5035746;28;20045;-42
2021/06/25 14:36:42;;;;;;;1.23;0.20;;;;;;;28.00;32.69;100150.81;5035611;28;20568;-42
2021/06/25 14:39:10;;;;;;;1.60;0.77;;;;;;;28.06;31.75;100147.38;5022933;28;20136;-43
2021/06/25 14:41:52;;;;;;;1.02;0.32;;;;;;;28.00;32.47;100148.97;5035970;28;20441;-42
2021/06/25 14:44:19;;;;;;;0.65;0.40;;;;;;;27.94;32.80;100145.22;5035431;28;20041;-42
2021/06/25 14:46:46;;;;;;;1.25;0.98;;;;;;;27.97;32.18;100143.19;5035691;28;20045;-43
2021/06/25 14:49:13;;;;;;;0.32;0.30;;;;;;;28.04;32.28;100147.56;5020929;28;20056;-42
2021/06/25 14:51:39;;;;;;;0.20;0.20;;;;;;;28.06;32.13;100145.53;5030865;28;20375;-42
2021/06/25 14:54:06;;;;;;;0.75;0.20;;;;;;;28.02;32.21;100144.28;5015865;28;20073;-42
2021/06/25 14:56:33;;;;;;;0.65;0.30;;;;;;;27.96;32.64;100139.66;5035151;28;20046;-42
2021/06/25 14:59:04;;;;;;;1.23;0.40;;;;;;;27.96;32.59;100136.97;5035586;28;20041;-42
2021/06/25 15:01:30;;;;;;;1.02;0.35;;;;;;;27.98;32.56;100140.31;5035445;28;20374;-42
2021/06/25 15:03:57;;;;;;;1.75;0.50;;;;;;;28.03;32.03;100143.25;5029644;28;20030;-42
2021/06/25 15:06:24;;;;;;;0.88;0.47;;;;;;;28.08;32.39;100140.00;5015403;28;20046;-42
2021/06/25 15:08:51;;;;;;;0.43;0.20;;;;;;;28.16;31.85;100132.63;5030759;28;20069;-42
2021/06/25 15:11:20;;;;;;;1.35;0.32;;;;;;;28.07;31.93;100133.81;5034925;28;20029;-42
2021/06/25 15:13:47;;;;;;;0.20;0.20;;;;;;;28.19;31.55;100140.28;5023497;28;20408;-42
2021/06/25 15:16:14;;;;;;;1.73;0.47;;;;;;;28.31;30.24;100139.75;5015211;28;20073;-42
2021/06/25 15:18:41;;;;;;;0.43;0.20;;;;;;;28.27;31.04;100138.47;5024378;28;20064;-42
2021/06/25 15:21:07;;;;;;;0.65;0.30;;;;;;;28.13;31.22;100138.38;5035584;28;20124;-42
2021/06/25 15:23:34;;;;;;;0.57;0.40;;;;;;;28.05;31.60;100135.84;5018110;28;20084;-42
2021/06/25 15:26:01;;;;;;;0.30;0.30;;;;;;;28.04;31.79;100133.34;5015271;28;20062;-42
2021/06/25 15:28:28;;;;;;;0.68;0.30;;;;;;;28.02;32.03;100130.88;5026544;28;20046;-42
2021/06/25 15:30:55;;;;;;;0.20;0.15;;;;;;;28.11;30.24;100134.22;5034939;28;20076;-42
2021/06/25 15:33:22;;;;;;;1.80;0.35;;;;;;;28.15;30.72;100133.66;5033432;28;20034;-42
2021/06/25 15:35:49;;;;;;;1.95;0.40;;;;;;;28.14;30.93;100129.31;5034935;28;20042;-42
2021/06/25 15:38:16;;;;;;;0.57;0.40;;;;;;;28.07;31.08;100128.44;5034199;28;20068;-42
2021/06/25 15:40:43;;;;;;;2.55;0.45;;;;;;;28.06;31.43;100128.63;5028646;28;20096;-42
2021/06/25 15:43:10;;;;;;;0.43;0.43;;;;;;;28.02;31.15;100124.66;5034515;28;20088;-42
2021/06/25 15:45:37;;;;;;;1.95;0.40;;;;;;;28.02;31.33;100125.53;5029777;28;20404;-41
2021/06/25 15:48:04;;;;;;;0.73;0.30;;;;;;;28.01;31.68;100123.84;5029397;28;20037;-41
2021/06/25 15:50:31;;;;;;;0.40;0.22;;;;;;;28.01;30.70;100120.34;5029594;28;20080;-40
2021/06/25 15:52:58;;;;;;;0.30;0.30;;;;;;;28.01;31.70;100120.34;5016841;28;20429;-41
2021/06/25 15:55:25;;;;;;;2.10;0.40;;;;;;;28.00;31.60;100127.53;5029258;28;20052;-40
2021/06/25 15:57:52;;;;;;;0.88;0.30;;;;;;;28.00;31.91;100122.19;5030242;28;20403;-41
2021/06/25 16:00:19;;;;;;;1.35;0.25;;;;;;;28.01;31.55;100112.28;5034149;28;20089;-41
2021/06/25 16:02:46;;;;;;;1.27;0.50;;;;;;;28.03;31.39;100124.50;5033527;28;20045;-38
2021/06/25 16:05:13;;;;;;;0.43;0.28;;;;;;;28.06;31.53;100120.59;5022054;28;20045;-41
2021/06/25 16:07:41;;;;;;;0.28;0.28;;;;;;;28.14;30.51;100123.13;5029116;28;20140;-41
2021/06/25 16:10:12;;;;;;;0.30;0.30;;;;;;;28.14;30.67;100117.78;5023843;28;20052;-38
2021/06/25 16:12:39;;;;;;;0.82;0.30;;;;;;;28.15;30.36;100114.91;5027079;28;20056;-42
2021/06/25 16:15:07;;;;;;;0.25;0.25;;;;;;;28.10;31.17;100117.31;5033935;28;20043;-42
2021/06/25 16:17:34;;;;;;;1.20;0.38;;;;;;;28.15;30.57;100116.75;5034021;28;20067;-42
2021/06/25 16:20:01;;;;;;;1.00;0.38;;;;;;;28.10;31.03;100111.97;5034015;28;20504;-42
2021/06/25 16:22:30;;;;;;;0.40;0.40;;;;;;;28.07;30.94;100119.56;5031964;28;20038;-42
2021/06/25 16:24:57;;;;;;;0.22;0.22;;;;;;;28.13;30.95;100119.63;5033531;28;20037;-42
2021/06/25 16:27:27;;;;;;;0.55;0.20;;;;;;;28.09;30.86;100118.34;5031302;28;20052;-42
2021/06/25 16:29:54;;;;;;;0.45;0.30;;;;;;;28.05;31.10;100114.41;5030959;28;20447;-42
2021/06/25 16:32:21;;;;;;;0.30;0.30;;;;;;;28.04;31.47;100110.06;5020628;28;20034;-42
2021/06/25 16:34:48;;;;;;;0.45;0.22;;;;;;;28.02;31.69;100117.47;5014402;28;20046;-42
2021/06/25 16:37:15;;;;;;;0.30;0.30;;;;;;;28.02;31.56;100112.13;5013806;28;20046;-42
2021/06/25 16:39:42;;;;;;;0.47;0.30;;;;;;;28.01;31.82;100110.44;5013749;28;20408;-42
2021/06/25 16:42:12;;;;;;;0.30;0.30;;;;;;;28.01;31.41;100106.94;5014097;28;20042;-42
2021/06/25 16:44:39;;;;;;;3.05;0.40;;;;;;;28.00;31.55;100100.75;5025366;28;20125;-42
2021/06/25 16:47:06;;;;;;;2.17;0.40;;;;;;;28.01;31.01;100112.28;5033419;28;20049;-42
2021/06/25 16:49:32;;;;;;;0.45;0.22;;;;;;;27.99;31.16;100109.81;5032874;28;20045;-42
2021/06/25 16:51:59;;;;;;;0.43;0.28;;;;;;;27.98;31.15;100105.47;5018501;28;20046;-42
2021/06/25 16:54:26;;;;;;;0.52;0.38;;;;;;;27.99;30.82;100107.13;5020962;28;20042;-42
2021/06/25 16:56:53;;;;;;;1.17;0.40;;;;;;;27.98;30.61;100102.81;5033149;28;20056;-42
2021/06/25 16:59:20;;;;;;;0.40;0.20;;;;;;;27.98;30.81;100105.47;5033259;28;20037;-42
2021/06/25 17:01:47;;;;;;;0.47;0.20;;;;;;;28.00;31.00;100107.97;5033321;28;20129;-42
2021/06/25 17:04:14;;;;;;;0.30;0.30;;;;;;;27.98;30.82;100108.16;5033183;28;20041;-42
2021/06/25 17:06:41;;;;;;;0.68;0.68;;;;;;;27.96;31.11;100107.50;5032925;28;20559;-42
2021/06/25 17:09:07;;;;;;;0.30;0.30;;;;;;;27.97;31.13;100105.69;5017218;28;20041;-42
2021/06/25 17:11:34;;;;;;;0.30;0.20;;;;;;;27.97;31.02;100111.88;5012834;28;20100;-42
2021/06/25 17:14:01;;;;;;;0.45;0.38;;;;;;;27.96;30.78;100109.38;5013544;28;20538;-42
2021/06/25 17:16:30;;;;;;;0.80;0.40;;;;;;;27.96;30.79;100106.69;5013229;28;20046;-42
2021/06/25 17:18:57;;;;;;;0.55;0.40;;;;;;;27.95;30.67;100108.53;5023875;28;20041;-42
2021/06/25 17:21:24;;;;;;;1.70;0.30;;;;;;;27.94;30.98;100113.06;5032500;28;20041;-42
2021/06/25 17:23:52;;;;;;;0.43;0.40;;;;;;;27.94;31.23;100107.72;5033039;28;20073;-42
2021/06/25 17:26:18;;;;;;;1.73;0.28;;;;;;;27.93;30.94;100114.09;5031575;28;20049;-42
2021/06/25 17:28:45;;;;;;;0.73;0.30;;;;;;;27.94;30.71;100109.56;5032751;28;20044;-42